Heat Index SAI AWOS Graphical Display Untitled Document
Bertrand Chaffee Hospital Heliport (2NK6) Springville, New York, USA
290
12:42
10/02/2016
07
17
240V310
29.58
N/A
1420
24(F), -4(C)
22(F), -6(C)
16 F
91%
BKN009 BKN013 BKN020
1 1/4
-SN
0"
N/A
12:42 zulu Wind 290 at 07 Knots, Gusting 17 Knots, Altimeter 29.58
METAR K2NK6 101242Z AUTO 29007G17KT 240V310 1 1/4SM -SN BKN009 BKN013 BKN020 M04/M06 A2958 A02 P0000
METAR:
FAA Disclaimer--Advisory Use ONLY, not for flight info--
INFO:
Wind Direction:
Wind Speed:
Wind Gust:
Wind Variable:
Altimeter:
Dens Alt:
Elev:
Temp:
Dwpt:
Wind Chill
Rel Humidity:
Ceiling:
Visibility:
Prsnt Wea:
PCPN:
Remarks:
How to read the WebPage